createdAt,value
2019-04-21T00:03:30.373Z,7.12
2019-04-21T00:08:50.824Z,7.16
2019-04-21T00:13:49.133Z,6.86
2019-04-21T00:18:54.875Z,6.85
2019-04-21T00:24:23.825Z,7.11
2019-04-21T00:34:21.748Z,7.00
2019-04-21T00:44:51.314Z,6.80
2019-04-21T00:49:59.114Z,6.76
2019-04-21T00:55:13.986Z,6.52
2019-04-21T01:00:11.641Z,6.50
2019-04-21T01:05:18.545Z,6.79
2019-04-21T01:10:14.983Z,6.80
2019-04-21T01:15:33.756Z,6.73
2019-04-21T01:20:17.264Z,6.76
2019-04-21T01:25:25.841Z,6.84
2019-04-21T01:30:42.913Z,6.73
2019-04-21T01:35:50.982Z,6.75
2019-04-21T01:40:52.727Z,6.66
2019-04-21T01:45:56.514Z,6.78
2019-04-21T01:51:01.529Z,6.71
2019-04-21T01:56:24.048Z,6.69
2019-04-21T02:01:37.203Z,6.70
2019-04-21T02:06:33.182Z,6.72
2019-04-21T02:11:44.337Z,6.62
2019-04-21T02:16:47.548Z,6.62
2019-04-21T02:21:49.195Z,6.41
2019-04-21T02:26:59.549Z,6.05
2019-04-21T02:32:24.387Z,6.13
2019-04-21T02:42:19.894Z,5.53
2019-04-21T02:47:38.916Z,5.57
2019-04-21T02:52:39.305Z,5.55
2019-04-21T02:57:43.513Z,4.96
2019-04-21T03:08:27.983Z,5.24
2019-04-21T03:13:21.692Z,4.73
2019-04-21T03:28:30.180Z,4.98
2019-04-21T03:43:43.826Z,4.41
2019-04-21T03:53:55.873Z,4.57
2019-04-21T04:09:48.292Z,4.94
2019-04-21T04:25:05.187Z,4.68
2019-04-21T04:30:09.670Z,5.34
2019-04-21T04:45:36.708Z,5.52
2019-04-21T04:50:45.330Z,4.97
2019-04-21T04:55:43.291Z,4.66
2019-04-21T05:00:45.996Z,4.59
2019-04-21T05:26:36.059Z,6.59
2019-04-21T05:32:07.904Z,7.09
2019-04-21T05:37:28.918Z,8.13
2019-04-21T05:42:29.327Z,9.03
2019-04-21T05:48:12.219Z,9.25
2019-04-21T05:53:15.038Z,9.20
2019-04-21T05:58:30.144Z,9.62
2019-04-21T06:03:23.876Z,10.12
2019-04-21T06:08:29.721Z,9.83
2019-04-21T06:13:40.383Z,10.16
2019-04-21T06:18:44.936Z,10.36
2019-04-21T06:23:42.236Z,10.58
2019-04-21T06:28:46.995Z,10.45
2019-04-21T06:33:48.917Z,10.46
2019-04-21T06:44:09.603Z,11.01
2019-04-21T06:49:02.790Z,11.14
2019-04-21T06:54:30.514Z,11.39
2019-04-21T06:59:13.501Z,11.76
2019-04-21T07:04:25.426Z,12.15
2019-04-21T07:09:48.346Z,11.38
2019-04-21T07:14:49.921Z,12.15
2019-04-21T07:19:40.964Z,12.01
2019-04-21T07:24:42.863Z,12.48
2019-04-21T07:29:55.636Z,12.82
2019-04-21T07:35:00.581Z,12.82
2019-04-21T07:39:55.607Z,12.63
2019-04-21T07:45:00.690Z,12.90
2019-04-21T07:50:22.736Z,12.86
2019-04-21T08:00:45.807Z,13.56
2019-04-21T08:05:59.200Z,14.10
2019-04-21T08:10:45.307Z,13.90
2019-04-21T08:15:50.985Z,14.24
2019-04-21T08:20:54.438Z,14.61
2019-04-21T08:26:06.131Z,14.93
2019-04-21T08:31:11.484Z,15.60
2019-04-21T08:36:20.759Z,14.97
2019-04-21T08:41:12.330Z,15.39
2019-04-21T08:46:23.878Z,15.11
2019-04-21T08:51:33.298Z,15.21
2019-04-21T08:57:02.492Z,14.98
2019-04-21T09:02:10.197Z,14.97
2019-04-21T09:07:29.343Z,15.19
2019-04-21T09:12:24.176Z,15.27
2019-04-21T09:17:24.867Z,15.20
2019-04-21T09:22:35.811Z,15.25
2019-04-21T09:27:36.647Z,15.85
2019-04-21T09:32:29.345Z,15.52
2019-04-21T09:37:41.883Z,15.27
2019-04-21T09:42:46.975Z,15.64
2019-04-21T09:47:50.210Z,15.67
2019-04-21T09:52:52.826Z,15.61
2019-04-21T09:57:55.718Z,15.94
2019-04-21T10:03:02.846Z,16.10
2019-04-21T10:08:01.720Z,16.59
2019-04-21T10:13:05.108Z,15.82
2019-04-21T10:18:13.031Z,16.29
2019-04-21T10:23:17.630Z,15.98
2019-04-21T10:28:21.283Z,16.07
2019-04-21T10:33:24.401Z,16.42
2019-04-21T10:38:36.575Z,16.16
2019-04-21T10:43:33.465Z,16.25
2019-04-21T10:48:38.242Z,16.15
2019-04-21T10:53:43.300Z,16.04
2019-04-21T10:58:48.147Z,16.00
2019-04-21T11:04:21.814Z,16.17
2019-04-21T11:09:22.042Z,16.61
2019-04-21T11:14:25.437Z,16.48
2019-04-21T11:19:28.809Z,16.26
2019-04-21T11:24:33.168Z,16.53
2019-04-21T11:29:37.172Z,16.81
2019-04-21T11:34:41.003Z,16.69
2019-04-21T11:39:52.137Z,17.28
2019-04-21T11:44:51.432Z,17.20
2019-04-21T11:49:54.993Z,16.82
2019-04-21T11:54:58.713Z,17.16
2019-04-21T12:00:02.225Z,16.97
2019-04-21T12:05:05.875Z,17.45
2019-04-21T12:10:09.329Z,17.44
2019-04-21T12:15:14.175Z,17.30
2019-04-21T12:20:18.816Z,17.12
2019-04-21T12:25:25.062Z,17.61
2019-04-21T12:30:33.528Z,17.65
2019-04-21T12:35:37.750Z,17.58
2019-04-21T12:40:42.275Z,18.28
2019-04-21T12:45:46.081Z,17.82
2019-04-21T12:50:49.913Z,17.75
2019-04-21T12:55:53.803Z,18.04
2019-04-21T13:00:57.270Z,18.30
2019-04-21T13:06:01.398Z,18.67
2019-04-21T13:11:06.417Z,19.10
2019-04-21T13:16:11.505Z,18.79
2019-04-21T13:21:16.020Z,18.22
2019-04-21T13:26:29.575Z,18.27
2019-04-21T13:31:24.606Z,18.25
2019-04-21T13:36:27.939Z,18.06
2019-04-21T13:41:42.846Z,18.78
2019-04-21T13:46:36.521Z,18.98
2019-04-21T13:51:39.766Z,18.53
2019-04-21T13:56:43.014Z,18.88
2019-04-21T14:01:47.792Z,18.82
2019-04-21T14:06:52.217Z,18.69
2019-04-21T14:11:57.048Z,18.83
2019-04-21T14:17:00.603Z,18.74
2019-04-21T14:22:03.819Z,18.95
2019-04-21T14:27:08.032Z,18.75
2019-04-21T14:32:11.496Z,18.26
2019-04-21T14:37:14.899Z,17.84
2019-04-21T14:42:18.420Z,17.98
2019-04-21T14:47:42.141Z,17.74
2019-04-21T14:52:48.506Z,18.00
2019-04-21T14:57:51.804Z,17.88
2019-04-21T15:02:55.905Z,18.00
2019-04-21T15:07:59.386Z,18.44
2019-04-21T15:13:03.543Z,18.47
2019-04-21T15:18:06.869Z,18.29
2019-04-21T15:23:10.492Z,18.16
2019-04-21T15:28:13.912Z,18.19
2019-04-21T15:33:18.225Z,17.79
2019-04-21T15:38:22.235Z,17.80
2019-04-21T15:43:26.592Z,17.91
2019-04-21T15:48:30.807Z,18.24
2019-04-21T15:53:34.842Z,18.13
2019-04-21T15:58:58.837Z,18.08
2019-04-21T16:04:02.889Z,17.94
2019-04-21T16:09:16.190Z,17.56
2019-04-21T16:14:14.602Z,17.48
2019-04-21T16:19:18.460Z,17.62
2019-04-21T16:24:23.309Z,17.61
2019-04-21T16:29:27.264Z,17.70
2019-04-21T16:34:42.801Z,17.46
2019-04-21T16:39:35.605Z,17.45
2019-04-21T16:44:38.956Z,17.23
2019-04-21T16:49:43.584Z,17.33
2019-04-21T16:54:50.011Z,17.20
2019-04-21T16:59:56.901Z,17.21
2019-04-21T17:05:00.454Z,17.05
2019-04-21T17:10:04.566Z,16.92
2019-04-21T17:15:24.326Z,16.69
2019-04-21T17:20:30.011Z,16.63
2019-04-21T17:25:21.669Z,16.48
2019-04-21T17:30:26.355Z,16.35
2019-04-21T17:35:31.162Z,16.25
2019-04-21T17:40:35.734Z,16.05
2019-04-21T17:45:39.613Z,15.95
2019-04-21T17:50:51.549Z,15.82
2019-04-21T17:56:19.426Z,15.68
2019-04-21T18:01:40.729Z,14.66
2019-04-21T18:06:36.918Z,14.20
2019-04-21T18:11:42.558Z,13.86
2019-04-21T18:16:53.437Z,13.49
2019-04-21T18:22:08.543Z,12.96
2019-04-21T18:27:13.528Z,13.01
2019-04-21T18:32:24.836Z,12.53
2019-04-21T18:37:47.692Z,12.70
2019-04-21T18:43:32.696Z,12.71
2019-04-21T18:48:30.329Z,12.49
2019-04-21T18:53:58.092Z,12.54
2019-04-21T18:58:54.231Z,12.54
2019-04-21T19:03:58.318Z,12.38
2019-04-21T19:09:19.971Z,11.55
2019-04-21T19:14:32.281Z,11.17
2019-04-21T19:24:41.219Z,10.83
2019-04-21T19:29:54.001Z,10.76
2019-04-21T19:34:37.816Z,11.04
2019-04-21T19:39:52.727Z,10.56
2019-04-21T19:44:59.329Z,10.76
2019-04-21T19:50:09.302Z,11.29
2019-04-21T19:54:54.993Z,11.01
2019-04-21T20:00:01.382Z,10.22
2019-04-21T20:05:09.542Z,9.93
2019-04-21T20:10:44.400Z,10.06
2019-04-21T20:15:51.028Z,10.68
2019-04-21T20:20:21.308Z,10.66
2019-04-21T20:25:25.618Z,10.55
2019-04-21T20:30:52.695Z,10.49
2019-04-21T20:36:11.957Z,10.45
2019-04-21T20:40:52.689Z,9.72
2019-04-21T20:46:03.704Z,9.67
2019-04-21T20:51:14.495Z,10.06
2019-04-21T20:56:09.008Z,10.13
2019-04-21T21:06:22.898Z,10.23
2019-04-21T21:11:29.406Z,10.28
2019-04-21T21:16:45.073Z,10.31
2019-04-21T21:21:34.497Z,10.29
2019-04-21T21:26:47.078Z,10.07
2019-04-21T21:31:50.668Z,10.28
2019-04-21T21:36:55.278Z,10.52
2019-04-21T21:41:49.800Z,10.53
2019-04-21T21:47:00.566Z,10.42
2019-04-21T21:52:06.057Z,10.46
2019-04-21T21:56:58.656Z,10.29
2019-04-21T22:02:03.580Z,10.28
2019-04-21T22:07:13.543Z,10.38
2019-04-21T22:12:12.751Z,10.07
2019-04-21T22:17:29.479Z,10.47
2019-04-21T22:22:36.557Z,10.57
2019-04-21T22:27:27.885Z,10.54
2019-04-21T22:32:33.153Z,10.40
2019-04-21T22:37:47.378Z,10.56
2019-04-21T22:42:53.624Z,10.62
2019-04-21T22:47:49.281Z,10.65
2019-04-21T22:52:58.293Z,10.38
2019-04-21T22:57:59.857Z,10.26
2019-04-21T23:03:09.752Z,10.54
2019-04-21T23:08:09.261Z,10.68
2019-04-21T23:13:18.281Z,10.68
2019-04-21T23:18:34.904Z,10.60
2019-04-21T23:23:44.332Z,10.57
2019-04-21T23:28:52.699Z,10.41
2019-04-21T23:33:34.564Z,10.38
2019-04-21T23:38:44.141Z,10.47
2019-04-21T23:43:44.889Z,10.54
2019-04-21T23:49:01.718Z,10.59
2019-04-21T23:53:53.347Z,10.79
2019-04-21T23:59:02.764Z,10.68
